createdAt,value
2023-01-19T00:00:42.860Z,14.50
2023-01-19T00:01:42.768Z,17.50
2023-01-19T00:02:42.727Z,17.10
2023-01-19T00:03:42.707Z,16.70
2023-01-19T00:04:42.696Z,17.20
2023-01-19T00:05:42.666Z,18.50
2023-01-19T00:06:42.710Z,16.80
2023-01-19T00:07:42.647Z,17.20
2023-01-19T00:08:42.649Z,17.30
2023-01-19T00:09:42.615Z,16.60
2023-01-19T00:10:42.619Z,17.10
2023-01-19T00:11:42.589Z,15.60
2023-01-19T00:12:42.616Z,16.90
2023-01-19T00:13:42.570Z,14.40
2023-01-19T00:14:42.591Z,14.80
2023-01-19T00:15:42.551Z,16.90
2023-01-19T00:16:42.543Z,18.50
2023-01-19T00:17:42.520Z,16.00
2023-01-19T00:18:42.537Z,16.60
2023-01-19T00:19:42.523Z,17.80
2023-01-19T00:20:42.482Z,14.50
2023-01-19T00:21:42.479Z,14.40
2023-01-19T00:22:42.456Z,15.50
2023-01-19T00:23:42.463Z,15.10
2023-01-19T00:24:42.488Z,13.90
2023-01-19T00:25:42.774Z,15.40
2023-01-19T00:26:42.432Z,14.10
2023-01-19T00:27:42.401Z,14.50
2023-01-19T00:28:42.419Z,14.90
2023-01-19T00:29:42.463Z,14.10
2023-01-19T00:30:42.384Z,14.00
2023-01-19T00:31:42.439Z,14.80
2023-01-19T00:32:42.328Z,13.80
2023-01-19T00:33:42.320Z,16.10
2023-01-19T00:34:42.330Z,14.70
2023-01-19T00:35:42.310Z,15.90
2023-01-19T00:36:42.278Z,14.90
2023-01-19T00:37:42.257Z,13.60
2023-01-19T00:38:42.255Z,15.40
2023-01-19T00:39:42.250Z,15.70
2023-01-19T00:40:42.254Z,12.90
2023-01-19T00:41:42.217Z,13.80
2023-01-19T00:42:42.234Z,18.20
2023-01-19T00:43:42.197Z,12.10
2023-01-19T00:44:42.247Z,14.50
2023-01-19T00:45:42.250Z,13.90
2023-01-19T00:46:42.178Z,13.40
2023-01-19T00:47:42.169Z,13.40
2023-01-19T00:48:42.149Z,12.50
2023-01-19T00:49:42.141Z,13.10
2023-01-19T00:50:42.126Z,16.90
2023-01-19T00:51:42.092Z,16.70
2023-01-19T00:52:42.102Z,12.50
2023-01-19T00:53:42.099Z,13.60
2023-01-19T00:54:42.090Z,15.50
2023-01-19T00:55:42.061Z,15.90
2023-01-19T00:56:42.074Z,15.10
2023-01-19T00:57:42.012Z,13.10
2023-01-19T00:58:42.006Z,16.50
2023-01-19T00:59:42.021Z,15.30
2023-01-19T01:00:42.008Z,14.50
2023-01-19T01:01:45.022Z,13.10
2023-01-19T01:02:42.108Z,16.20
2023-01-19T01:03:41.967Z,10.80
2023-01-19T01:04:41.920Z,15.10
2023-01-19T01:05:41.917Z,11.60
2023-01-19T01:06:41.928Z,12.60
2023-01-19T01:07:41.943Z,12.00
2023-01-19T01:08:41.873Z,13.80
2023-01-19T01:09:41.873Z,12.10
2023-01-19T01:10:41.876Z,13.40
2023-01-19T01:11:41.901Z,11.80
2023-01-19T01:12:41.858Z,13.20
2023-01-19T01:13:41.824Z,10.80
2023-01-19T01:14:41.868Z,10.00
2023-01-19T01:15:41.824Z,11.60
2023-01-19T01:16:41.857Z,10.60
2023-01-19T01:17:41.756Z,11.00
2023-01-19T01:18:41.758Z,11.00
2023-01-19T01:19:41.760Z,11.20
2023-01-19T01:20:41.737Z,11.90
2023-01-19T01:21:41.744Z,11.90
2023-01-19T01:22:41.697Z,10.20
2023-01-19T01:23:41.680Z,11.80
2023-01-19T01:24:41.671Z,11.70
2023-01-19T01:25:41.670Z,13.20
2023-01-19T01:26:41.659Z,10.70
2023-01-19T01:27:41.646Z,10.30
2023-01-19T01:28:41.620Z,11.20
2023-01-19T01:29:41.645Z,11.90
2023-01-19T01:30:41.623Z,13.80
2023-01-19T01:31:41.669Z,11.90
2023-01-19T01:32:41.566Z,11.40
2023-01-19T01:33:42.016Z,12.30
2023-01-19T01:34:41.551Z,11.00
2023-01-19T01:35:41.539Z,12.60
2023-01-19T01:36:41.549Z,15.70
2023-01-19T01:37:41.500Z,12.40
2023-01-19T01:38:41.508Z,13.60
2023-01-19T01:39:41.472Z,13.40
2023-01-19T01:40:41.477Z,13.40
2023-01-19T01:41:41.501Z,11.30
2023-01-19T01:42:41.468Z,10.80
2023-01-19T01:43:41.435Z,15.30
2023-01-19T01:44:41.414Z,10.80
2023-01-19T01:45:41.438Z,12.90
2023-01-19T01:46:41.446Z,12.10
2023-01-19T01:47:41.385Z,11.80
2023-01-19T01:48:41.375Z,13.70
2023-01-19T01:49:41.359Z,12.40
2023-01-19T01:50:41.332Z,15.90
2023-01-19T01:51:41.349Z,12.10
2023-01-19T01:52:41.308Z,12.00
2023-01-19T01:53:41.339Z,11.40
2023-01-19T01:54:41.297Z,12.00
2023-01-19T01:55:41.292Z,9.50
2023-01-19T01:56:41.282Z,10.70
2023-01-19T01:57:41.254Z,10.60
2023-01-19T01:58:41.252Z,10.20
2023-01-19T01:59:41.226Z,12.70
2023-01-19T02:00:41.298Z,12.10
2023-01-19T02:01:41.394Z,11.10
2023-01-19T02:02:41.207Z,10.20
2023-01-19T02:03:41.233Z,16.20
2023-01-19T02:04:41.156Z,12.20
2023-01-19T02:05:41.175Z,11.60
2023-01-19T02:06:41.138Z,12.80
2023-01-19T02:07:41.168Z,11.70
2023-01-19T02:08:41.106Z,17.00
2023-01-19T02:09:41.122Z,12.90
2023-01-19T02:10:41.082Z,10.50
2023-01-19T02:11:41.109Z,9.80
2023-01-19T02:12:41.122Z,12.10
2023-01-19T02:13:41.048Z,11.30
2023-01-19T02:14:41.047Z,10.00
2023-01-19T02:15:41.046Z,10.00
2023-01-19T02:16:41.079Z,8.90
2023-01-19T02:17:41.027Z,12.20
2023-01-19T02:18:41.035Z,11.20
2023-01-19T02:19:40.974Z,12.30
2023-01-19T02:20:40.951Z,11.80
2023-01-19T02:21:40.959Z,9.70
2023-01-19T02:22:40.963Z,10.20
2023-01-19T02:23:40.966Z,10.80
2023-01-19T02:24:40.908Z,10.00
2023-01-19T02:25:40.947Z,10.70
2023-01-19T02:26:40.885Z,9.00
2023-01-19T02:27:40.909Z,10.30
2023-01-19T02:28:40.886Z,10.40
2023-01-19T02:29:40.853Z,9.40
2023-01-19T02:30:46.956Z,10.30
2023-01-19T02:31:40.817Z,8.50
2023-01-19T02:32:40.807Z,9.30
2023-01-19T02:33:40.812Z,9.60
2023-01-19T02:34:40.775Z,11.00
2023-01-19T02:35:40.763Z,11.00
2023-01-19T02:36:40.744Z,8.60
2023-01-19T02:37:40.741Z,8.20
2023-01-19T02:38:40.729Z,9.10
2023-01-19T02:39:40.707Z,8.70
2023-01-19T02:40:40.691Z,9.50
2023-01-19T02:41:40.689Z,8.70
2023-01-19T02:42:40.666Z,10.70
2023-01-19T02:43:40.662Z,9.90
2023-01-19T02:44:40.644Z,6.50
2023-01-19T02:45:40.676Z,8.90
2023-01-19T02:46:40.611Z,5.70
2023-01-19T02:47:40.654Z,11.60
2023-01-19T02:48:40.772Z,8.60
2023-01-19T02:49:40.581Z,7.50
2023-01-19T02:50:40.559Z,6.80
2023-01-19T02:51:40.584Z,7.20
2023-01-19T02:52:40.533Z,8.80
2023-01-19T02:53:40.532Z,11.30
2023-01-19T02:54:40.527Z,6.80
2023-01-19T02:55:40.513Z,10.40
2023-01-19T02:56:40.517Z,8.20
2023-01-19T02:57:40.492Z,7.70
2023-01-19T02:58:40.469Z,8.80
2023-01-19T02:59:40.473Z,9.10
2023-01-19T03:00:40.448Z,9.10
2023-01-19T03:01:40.531Z,9.10
2023-01-19T03:02:40.451Z,8.70
2023-01-19T03:03:40.405Z,10.90
2023-01-19T03:04:40.403Z,10.10
2023-01-19T03:05:40.384Z,11.50
2023-01-19T03:06:40.368Z,9.00
2023-01-19T03:07:40.357Z,9.20
2023-01-19T03:08:40.344Z,8.80
2023-01-19T03:09:40.332Z,9.70
2023-01-19T03:10:40.318Z,9.20
2023-01-19T03:11:40.297Z,10.10
2023-01-19T03:12:40.298Z,10.40
2023-01-19T03:13:40.271Z,8.40
2023-01-19T03:14:40.269Z,11.70
2023-01-19T03:15:40.257Z,11.50
2023-01-19T03:16:40.250Z,7.80
2023-01-19T03:17:40.219Z,10.40
2023-01-19T03:18:40.226Z,11.30
2023-01-19T03:19:40.193Z,9.90
2023-01-19T03:20:40.202Z,11.80
2023-01-19T03:21:40.199Z,11.60
2023-01-19T03:22:40.159Z,13.40
2023-01-19T03:23:40.155Z,9.80
2023-01-19T03:24:40.151Z,10.60
2023-01-19T03:25:40.129Z,11.10
2023-01-19T03:26:40.111Z,11.10
2023-01-19T03:27:40.127Z,10.60
2023-01-19T03:28:40.077Z,14.10
2023-01-19T03:29:40.074Z,10.20
2023-01-19T03:30:40.110Z,10.30
2023-01-19T03:31:40.046Z,11.40
2023-01-19T03:32:40.024Z,9.40
2023-01-19T03:33:40.018Z,11.20
2023-01-19T03:34:40.032Z,10.90
2023-01-19T03:35:40.021Z,9.50
2023-01-19T03:36:39.984Z,10.50
2023-01-19T03:37:39.969Z,8.80
2023-01-19T03:38:39.947Z,12.90
2023-01-19T03:39:39.940Z,10.90
2023-01-19T03:40:39.948Z,10.80
2023-01-19T03:41:39.911Z,10.80
2023-01-19T03:42:39.909Z,11.10
2023-01-19T03:43:39.893Z,13.70
2023-01-19T03:44:39.899Z,11.90
2023-01-19T03:45:39.880Z,14.20
2023-01-19T03:46:39.860Z,14.70
2023-01-19T03:47:39.847Z,11.60
2023-01-19T03:48:39.841Z,13.10
2023-01-19T03:49:39.834Z,11.90
2023-01-19T03:50:39.814Z,11.00
2023-01-19T03:51:39.817Z,10.20
2023-01-19T03:52:39.789Z,14.40
2023-01-19T03:53:39.766Z,13.20
2023-01-19T03:54:39.782Z,10.10
2023-01-19T03:55:39.759Z,11.50
2023-01-19T03:56:39.728Z,11.30
2023-01-19T03:57:39.715Z,16.50
2023-01-19T03:58:39.701Z,11.40
2023-01-19T03:59:39.691Z,11.00
2023-01-19T04:00:39.700Z,11.60
2023-01-19T04:01:39.771Z,11.30
2023-01-19T04:02:39.707Z,12.70
2023-01-19T04:03:39.638Z,10.60
2023-01-19T04:04:39.626Z,11.90
2023-01-19T04:05:39.621Z,13.30
2023-01-19T04:06:39.606Z,11.10
2023-01-19T04:07:39.598Z,11.00
2023-01-19T04:08:39.584Z,15.40
2023-01-19T04:09:39.561Z,11.80
2023-01-19T04:10:39.571Z,11.90
2023-01-19T04:11:39.598Z,11.90
2023-01-19T04:12:39.538Z,11.60
2023-01-19T04:13:39.521Z,12.30
2023-01-19T04:14:39.535Z,13.20
2023-01-19T04:15:39.655Z,11.50
2023-01-19T04:16:39.485Z,13.80
2023-01-19T04:17:39.501Z,13.60
2023-01-19T04:18:39.449Z,12.80
2023-01-19T04:19:39.441Z,13.20
2023-01-19T04:20:39.463Z,13.90
2023-01-19T04:21:39.426Z,12.70
2023-01-19T04:22:39.431Z,11.40
2023-01-19T04:23:39.413Z,12.70
2023-01-19T04:24:39.383Z,14.10
2023-01-19T04:25:39.369Z,12.20
2023-01-19T04:26:39.365Z,16.00
2023-01-19T04:27:39.346Z,13.00
2023-01-19T04:28:39.326Z,13.00
2023-01-19T04:29:39.319Z,15.30
2023-01-19T04:30:39.313Z,15.40
2023-01-19T04:31:39.327Z,14.20
2023-01-19T04:32:39.289Z,13.00
2023-01-19T04:33:39.275Z,14.50
2023-01-19T04:34:39.270Z,15.70
2023-01-19T04:35:39.256Z,13.50
2023-01-19T04:36:39.246Z,14.70
2023-01-19T04:37:39.221Z,13.70
2023-01-19T04:38:39.211Z,12.70
2023-01-19T04:39:39.193Z,14.60
2023-01-19T04:40:39.173Z,13.40
2023-01-19T04:41:39.181Z,12.50
2023-01-19T04:42:39.160Z,14.10
2023-01-19T04:43:39.142Z,12.80
2023-01-19T04:44:39.141Z,12.20
2023-01-19T04:45:39.116Z,16.00
2023-01-19T04:46:39.151Z,13.50
2023-01-19T04:47:39.107Z,15.80
2023-01-19T04:48:41.213Z,13.20
2023-01-19T04:49:39.068Z,15.10
2023-01-19T04:50:39.074Z,16.70
2023-01-19T04:51:39.047Z,13.00
2023-01-19T04:52:39.084Z,14.30
2023-01-19T04:53:39.017Z,14.90
2023-01-19T04:54:39.017Z,15.70
2023-01-19T04:55:39.000Z,15.60
2023-01-19T04:56:38.986Z,19.50
2023-01-19T04:57:38.975Z,14.30
2023-01-19T04:58:38.952Z,14.30
2023-01-19T04:59:38.948Z,12.80
2023-01-19T05:00:38.932Z,13.90
2023-01-19T05:01:38.959Z,15.20
2023-01-19T05:02:38.944Z,12.60
2023-01-19T05:03:38.892Z,13.20
2023-01-19T05:04:38.874Z,15.70
2023-01-19T05:05:38.874Z,14.70
2023-01-19T05:06:38.853Z,16.00
2023-01-19T05:07:38.849Z,15.10
2023-01-19T05:08:38.840Z,12.00
2023-01-19T05:09:38.829Z,11.40
2023-01-19T05:10:38.802Z,14.90
2023-01-19T05:11:38.802Z,14.20
2023-01-19T05:12:38.792Z,16.20
2023-01-19T05:13:38.868Z,13.90
2023-01-19T05:14:38.784Z,12.90
2023-01-19T05:15:38.733Z,13.20
2023-01-19T05:16:38.725Z,12.90
2023-01-19T05:17:38.720Z,16.70
2023-01-19T05:18:38.715Z,14.10
2023-01-19T05:19:38.685Z,14.60
2023-01-19T05:20:38.689Z,17.60
2023-01-19T05:21:38.673Z,18.10
2023-01-19T05:22:38.649Z,13.40
2023-01-19T05:23:38.643Z,18.90
2023-01-19T05:24:38.635Z,15.40
2023-01-19T05:25:38.611Z,19.90
2023-01-19T05:26:38.612Z,15.10
2023-01-19T05:27:38.626Z,15.10
2023-01-19T05:28:38.588Z,17.20
2023-01-19T05:29:38.578Z,16.20
2023-01-19T05:30:38.621Z,16.20
2023-01-19T05:31:38.569Z,16.40
2023-01-19T05:32:38.534Z,15.60
2023-01-19T05:33:38.529Z,14.40
2023-01-19T05:34:38.511Z,15.90
2023-01-19T05:35:38.498Z,17.00
2023-01-19T05:36:38.506Z,16.50
2023-01-19T05:37:38.465Z,17.10
2023-01-19T05:38:38.455Z,13.00
2023-01-19T05:39:38.458Z,16.40
2023-01-19T05:40:38.430Z,13.70
2023-01-19T05:41:38.419Z,14.60
2023-01-19T05:42:38.411Z,16.30
2023-01-19T05:43:38.396Z,16.60
2023-01-19T05:44:38.390Z,16.60
2023-01-19T05:45:38.382Z,16.40
2023-01-19T05:46:38.438Z,16.00
2023-01-19T05:47:38.356Z,17.20
2023-01-19T05:48:38.351Z,14.40
2023-01-19T05:49:38.340Z,18.10
2023-01-19T05:50:38.306Z,15.90
2023-01-19T05:51:38.332Z,16.90
2023-01-19T05:52:38.280Z,15.90
2023-01-19T05:53:38.282Z,17.50
2023-01-19T05:54:38.321Z,20.20
2023-01-19T05:55:38.244Z,21.60
2023-01-19T05:56:38.238Z,14.40
2023-01-19T05:57:38.324Z,15.10
2023-01-19T05:58:38.215Z,17.80
2023-01-19T05:59:38.202Z,16.30
2023-01-19T06:00:38.209Z,14.20
2023-01-19T06:01:39.863Z,17.10
2023-01-19T06:02:38.172Z,18.80
2023-01-19T06:03:38.161Z,19.50
2023-01-19T06:04:38.154Z,17.40
2023-01-19T06:05:38.128Z,16.20
2023-01-19T06:06:38.129Z,17.10
2023-01-19T06:07:38.097Z,18.40
2023-01-19T06:08:38.114Z,15.80
2023-01-19T06:09:38.098Z,17.10
2023-01-19T06:10:38.081Z,18.80
2023-01-19T06:11:38.066Z,18.70
2023-01-19T06:12:38.041Z,18.30
2023-01-19T06:13:38.020Z,15.60
2023-01-19T06:14:38.012Z,18.20
2023-01-19T06:15:38.044Z,16.30
2023-01-19T06:16:38.058Z,15.70
2023-01-19T06:17:37.981Z,16.80
2023-01-19T06:18:38.021Z,19.00
2023-01-19T06:19:37.956Z,16.20
2023-01-19T06:20:37.955Z,19.30
2023-01-19T06:21:37.951Z,16.70
2023-01-19T06:22:37.923Z,19.70
2023-01-19T06:23:37.906Z,17.30
2023-01-19T06:24:37.903Z,17.40
2023-01-19T06:25:37.892Z,17.50
2023-01-19T06:26:37.872Z,18.70
2023-01-19T06:27:37.863Z,17.20
2023-01-19T06:28:37.843Z,17.20
2023-01-19T06:29:37.831Z,17.60
2023-01-19T06:30:37.863Z,17.60
2023-01-19T06:31:37.840Z,17.20
2023-01-19T06:32:37.791Z,19.00
2023-01-19T06:33:37.784Z,18.10
2023-01-19T06:34:37.769Z,19.00
2023-01-19T06:35:37.764Z,17.90
2023-01-19T06:36:37.750Z,17.40
2023-01-19T06:37:37.726Z,21.70
2023-01-19T06:38:37.721Z,20.60
2023-01-19T06:39:37.710Z,19.50
2023-01-19T06:40:37.694Z,18.00
2023-01-19T06:41:37.684Z,16.30
2023-01-19T06:42:37.676Z,20.20
2023-01-19T06:43:37.659Z,19.10
2023-01-19T06:44:37.646Z,19.20
2023-01-19T06:45:37.711Z,18.50
2023-01-19T06:46:37.642Z,16.20
2023-01-19T06:47:37.609Z,17.50
2023-01-19T06:48:37.595Z,18.00
2023-01-19T06:49:37.590Z,16.50
2023-01-19T06:50:37.597Z,18.10
2023-01-19T06:51:37.567Z,18.60
2023-01-19T06:52:37.580Z,17.70
2023-01-19T06:53:37.532Z,18.80
2023-01-19T06:54:37.524Z,16.90
2023-01-19T06:55:37.511Z,17.00
2023-01-19T06:56:37.505Z,15.80
2023-01-19T06:57:37.494Z,20.30
2023-01-19T06:58:37.482Z,18.60
2023-01-19T06:59:37.459Z,16.90
2023-01-19T07:00:37.447Z,17.60
2023-01-19T07:01:37.566Z,18.30
2023-01-19T07:02:37.492Z,17.20
2023-01-19T07:03:37.409Z,16.00
2023-01-19T07:04:37.404Z,15.10
2023-01-19T07:05:37.403Z,17.20
2023-01-19T07:06:37.385Z,18.40
2023-01-19T07:07:37.375Z,15.60
2023-01-19T07:08:37.389Z,16.70
2023-01-19T07:09:37.345Z,16.80
2023-01-19T07:11:25.188Z,17.00
2023-01-19T07:11:37.322Z,18.10
2023-01-19T07:12:37.318Z,17.80
2023-01-19T07:13:37.283Z,14.80
2023-01-19T07:14:37.293Z,20.50
2023-01-19T07:15:37.256Z,16.90
2023-01-19T07:16:37.297Z,17.90
2023-01-19T07:17:37.238Z,20.10
2023-01-19T07:18:37.235Z,18.20
2023-01-19T07:19:37.215Z,17.20
2023-01-19T07:20:37.203Z,19.40
2023-01-19T07:21:37.202Z,17.70
2023-01-19T07:22:37.200Z,17.20
2023-01-19T07:23:37.176Z,15.80
2023-01-19T07:24:37.161Z,17.20
2023-01-19T07:25:37.159Z,15.00
2023-01-19T07:26:37.130Z,15.10
2023-01-19T07:27:37.138Z,17.20
2023-01-19T07:28:37.148Z,17.40
2023-01-19T07:29:37.100Z,14.40
2023-01-19T07:30:37.265Z,18.20
2023-01-19T07:31:37.169Z,15.20
2023-01-19T07:32:37.065Z,17.50
2023-01-19T07:33:37.041Z,14.70
2023-01-19T07:34:37.027Z,17.10
2023-01-19T07:35:37.016Z,15.10
2023-01-19T07:36:37.014Z,17.60
2023-01-19T07:37:36.993Z,20.00
2023-01-19T07:38:36.992Z,17.40
2023-01-19T07:39:36.976Z,16.90
2023-01-19T07:40:36.953Z,15.90
2023-01-19T07:41:36.938Z,16.80
2023-01-19T07:42:36.932Z,16.30
2023-01-19T07:43:36.932Z,18.90
2023-01-19T07:44:36.908Z,15.10
2023-01-19T07:45:36.905Z,17.70
2023-01-19T07:46:36.893Z,17.00
2023-01-19T07:47:36.857Z,18.50
2023-01-19T07:48:36.862Z,18.40
2023-01-19T07:49:36.858Z,15.20
2023-01-19T07:50:36.838Z,17.30
2023-01-19T07:51:36.879Z,17.10
2023-01-19T07:52:36.818Z,16.10
2023-01-19T07:53:36.804Z,16.50
2023-01-19T07:54:36.782Z,16.10
2023-01-19T07:55:36.774Z,15.40
2023-01-19T07:56:36.755Z,17.50
2023-01-19T07:57:36.741Z,13.10
2023-01-19T07:58:36.784Z,16.00
2023-01-19T07:59:36.732Z,14.50
2023-01-19T08:00:36.709Z,16.40
2023-01-19T08:01:36.751Z,16.30
2023-01-19T08:02:36.714Z,14.70
2023-01-19T08:03:36.666Z,15.70
2023-01-19T08:04:36.719Z,14.40
2023-01-19T08:05:36.648Z,14.20
2023-01-19T08:06:36.676Z,20.80
2023-01-19T08:07:36.617Z,16.00
2023-01-19T08:08:36.607Z,17.00
2023-01-19T08:09:36.616Z,18.00
2023-01-19T08:10:36.619Z,16.20
2023-01-19T08:11:36.565Z,17.10
2023-01-19T08:12:36.563Z,16.90
2023-01-19T08:13:36.558Z,15.60
2023-01-19T08:14:36.538Z,16.00
2023-01-19T08:15:36.611Z,15.00
2023-01-19T08:16:36.524Z,17.70
2023-01-19T08:17:36.499Z,17.40
2023-01-19T08:18:36.505Z,14.70
2023-01-19T08:19:36.507Z,17.80
2023-01-19T08:20:36.493Z,19.90
2023-01-19T08:21:36.475Z,15.50
2023-01-19T08:22:36.448Z,17.20
2023-01-19T08:23:36.444Z,14.70
2023-01-19T08:24:36.428Z,17.50
2023-01-19T08:25:36.409Z,16.00
2023-01-19T08:26:36.418Z,12.60
2023-01-19T08:27:36.372Z,15.50
2023-01-19T08:28:36.398Z,15.60
2023-01-19T08:29:36.407Z,13.80
2023-01-19T08:30:36.345Z,15.40
2023-01-19T08:31:36.502Z,15.00
2023-01-19T08:32:36.354Z,13.70
2023-01-19T08:33:36.301Z,14.40
2023-01-19T08:34:36.433Z,16.00
2023-01-19T08:35:36.289Z,15.40
2023-01-19T08:36:36.262Z,14.10
2023-01-19T08:37:36.257Z,15.40
2023-01-19T08:38:36.246Z,13.30
2023-01-19T08:39:36.243Z,15.10
2023-01-19T08:40:36.228Z,14.00
2023-01-19T08:41:36.219Z,10.70
2023-01-19T08:42:36.180Z,14.00
2023-01-19T08:43:36.171Z,13.50
2023-01-19T08:44:37.874Z,17.70
2023-01-19T08:45:36.157Z,14.40
2023-01-19T08:46:36.147Z,15.70
2023-01-19T08:47:36.169Z,20.80
2023-01-19T08:48:37.331Z,19.00
2023-01-19T08:49:36.110Z,15.40
2023-01-19T08:50:36.098Z,14.60
2023-01-19T08:51:36.070Z,14.70
2023-01-19T08:52:36.082Z,15.20
2023-01-19T08:53:36.051Z,15.50
2023-01-19T08:54:36.051Z,15.20
2023-01-19T08:55:36.048Z,16.90
2023-01-19T08:56:36.018Z,13.20
2023-01-19T08:57:36.006Z,15.60
2023-01-19T08:58:36.018Z,16.80
2023-01-19T08:59:35.972Z,13.80
2023-01-19T09:00:35.973Z,15.30
2023-01-19T09:01:36.072Z,14.50
2023-01-19T09:02:36.024Z,15.20
2023-01-19T09:03:35.932Z,17.50
2023-01-19T09:04:35.935Z,21.40
2023-01-19T09:05:35.910Z,14.30
2023-01-19T09:06:35.882Z,14.40
2023-01-19T09:07:35.875Z,19.00
2023-01-19T09:08:35.869Z,19.10
2023-01-19T09:09:35.849Z,15.50
2023-01-19T09:10:35.852Z,16.10
2023-01-19T09:11:35.835Z,13.80
2023-01-19T09:12:35.809Z,15.40
2023-01-19T09:13:35.803Z,15.40
2023-01-19T09:14:35.794Z,13.50
2023-01-19T09:15:35.785Z,12.50
2023-01-19T09:16:35.769Z,16.60
2023-01-19T09:17:35.769Z,12.40
2023-01-19T09:18:35.737Z,15.80
2023-01-19T09:19:35.732Z,12.40
2023-01-19T09:20:35.710Z,15.90
2023-01-19T09:21:35.719Z,19.20
2023-01-19T09:22:35.694Z,15.20
2023-01-19T09:23:35.677Z,15.80
2023-01-19T09:24:35.666Z,15.50
2023-01-19T09:25:35.660Z,12.20
2023-01-19T09:26:35.638Z,19.30
2023-01-19T09:27:35.633Z,18.10
2023-01-19T09:28:35.609Z,12.20
2023-01-19T09:29:35.606Z,13.10
2023-01-19T09:30:35.606Z,15.20
2023-01-19T09:31:35.692Z,16.30
2023-01-19T09:32:35.554Z,22.20
2023-01-19T09:33:35.548Z,16.80
2023-01-19T09:34:35.532Z,17.50
2023-01-19T09:35:35.528Z,19.30
2023-01-19T09:36:35.523Z,13.90
2023-01-19T09:37:35.525Z,15.50
2023-01-19T09:38:35.492Z,15.60
2023-01-19T09:39:35.514Z,12.20
2023-01-19T09:40:35.454Z,19.80
2023-01-19T09:41:35.469Z,15.40
2023-01-19T09:42:35.452Z,13.60
2023-01-19T09:43:35.413Z,18.90
2023-01-19T09:44:35.423Z,13.10
2023-01-19T09:45:35.392Z,17.60
2023-01-19T09:46:35.437Z,16.20
2023-01-19T09:47:35.385Z,21.70
2023-01-19T09:48:35.356Z,18.40
2023-01-19T09:49:35.342Z,19.20
2023-01-19T09:50:35.339Z,19.60
2023-01-19T09:51:35.345Z,17.80
2023-01-19T09:52:35.309Z,14.90
2023-01-19T09:53:35.310Z,16.60
2023-01-19T09:54:35.280Z,14.50
2023-01-19T09:55:35.276Z,15.70
2023-01-19T09:56:35.259Z,13.50
2023-01-19T09:57:35.249Z,14.10
2023-01-19T09:58:35.220Z,11.90
2023-01-19T09:59:35.218Z,12.20
2023-01-19T10:00:35.250Z,18.70
2023-01-19T10:01:35.587Z,12.00
2023-01-19T10:02:35.272Z,12.90
2023-01-19T10:03:35.163Z,17.60
2023-01-19T10:04:35.155Z,13.80
2023-01-19T10:05:35.159Z,16.50
2023-01-19T10:06:35.134Z,23.20
2023-01-19T10:07:35.128Z,12.10
2023-01-19T10:08:35.129Z,13.50
2023-01-19T10:09:35.102Z,21.00
2023-01-19T10:10:35.078Z,12.20
2023-01-19T10:11:51.515Z,14.70
2023-01-19T10:12:35.051Z,12.40
2023-01-19T10:13:35.059Z,10.50
2023-01-19T10:14:35.019Z,14.10
2023-01-19T10:15:35.030Z,15.20
2023-01-19T10:16:34.999Z,24.70
2023-01-19T10:17:34.985Z,19.80
2023-01-19T10:18:35.012Z,13.50
2023-01-19T10:19:34.960Z,12.60
2023-01-19T10:20:34.996Z,11.60
2023-01-19T10:21:34.955Z,13.00
2023-01-19T10:22:34.918Z,18.30
2023-01-19T10:23:34.969Z,10.70
2023-01-19T10:24:34.901Z,12.60
2023-01-19T10:25:34.981Z,15.40
2023-01-19T10:26:34.869Z,15.40
2023-01-19T10:27:34.917Z,11.30
2023-01-19T10:28:34.858Z,21.40
2023-01-19T10:29:34.873Z,14.00
2023-01-19T10:30:34.993Z,14.90
2023-01-19T10:31:34.932Z,14.10
2023-01-19T10:32:34.803Z,18.60
2023-01-19T10:33:34.824Z,15.50
2023-01-19T10:34:34.786Z,13.50
2023-01-19T10:35:34.789Z,20.50
2023-01-19T10:36:34.769Z,10.90
2023-01-19T10:37:34.738Z,14.30
2023-01-19T10:38:34.722Z,13.40
2023-01-19T10:39:38.516Z,12.60
2023-01-19T10:40:34.719Z,12.20
2023-01-19T10:41:34.720Z,14.00
2023-01-19T10:42:34.675Z,18.10
2023-01-19T10:43:34.715Z,11.30
2023-01-19T10:44:34.681Z,13.70
2023-01-19T10:45:36.708Z,10.70
2023-01-19T10:46:34.624Z,13.80
2023-01-19T10:47:34.716Z,8.80
2023-01-19T10:48:34.615Z,11.40
2023-01-19T10:49:34.625Z,17.50
2023-01-19T10:50:34.585Z,13.00
2023-01-19T10:51:34.560Z,11.80
2023-01-19T10:52:34.610Z,8.10
2023-01-19T10:53:34.559Z,13.20
2023-01-19T10:54:34.550Z,12.60
2023-01-19T10:55:34.541Z,15.10
2023-01-19T10:56:34.512Z,12.10
2023-01-19T10:57:34.534Z,15.70
2023-01-19T10:58:34.525Z,17.50
2023-01-19T10:59:34.484Z,14.50
2023-01-19T11:00:34.485Z,11.90
2023-01-19T11:01:34.547Z,15.30
2023-01-19T11:02:34.637Z,12.80
2023-01-19T11:03:34.484Z,15.50
2023-01-19T11:04:34.483Z,11.40
2023-01-19T11:05:34.390Z,9.20
2023-01-19T11:06:34.366Z,11.30
2023-01-19T11:07:34.403Z,17.00
2023-01-19T11:08:34.345Z,12.40
2023-01-19T11:09:34.338Z,6.30
2023-01-19T11:10:34.329Z,12.50
2023-01-19T11:11:34.305Z,11.10
2023-01-19T11:12:34.302Z,13.50
2023-01-19T11:13:34.304Z,12.10
2023-01-19T11:14:34.300Z,12.20
2023-01-19T11:15:34.264Z,10.70
2023-01-19T11:16:34.287Z,7.40
2023-01-19T11:17:34.247Z,15.20
2023-01-19T11:18:34.210Z,12.30
2023-01-19T11:19:34.208Z,9.90
2023-01-19T11:20:34.200Z,10.90
2023-01-19T11:21:34.202Z,6.70
2023-01-19T11:22:34.191Z,12.70
2023-01-19T11:23:34.169Z,18.70
2023-01-19T11:24:34.149Z,13.40
2023-01-19T11:25:34.138Z,15.70
2023-01-19T11:26:34.110Z,11.50
2023-01-19T11:27:34.116Z,8.80
2023-01-19T11:28:34.091Z,10.10
2023-01-19T11:29:34.078Z,11.20
2023-01-19T11:30:34.087Z,14.70
2023-01-19T11:31:34.097Z,12.80
2023-01-19T11:32:34.049Z,13.90
2023-01-19T11:33:34.031Z,11.70
2023-01-19T11:34:34.040Z,10.10
2023-01-19T11:35:34.014Z,14.40
2023-01-19T11:36:34.036Z,19.90
2023-01-19T11:37:33.977Z,12.00
2023-01-19T11:38:34.035Z,13.70
2023-01-19T11:39:33.980Z,22.00
2023-01-19T11:40:33.964Z,9.00
2023-01-19T11:41:33.919Z,7.10
2023-01-19T11:42:33.909Z,7.00
2023-01-19T11:43:48.392Z,9.20
2023-01-19T11:44:33.890Z,12.40
2023-01-19T11:45:33.920Z,9.80
2023-01-19T11:46:33.874Z,9.80
2023-01-19T11:47:33.869Z,9.20
2023-01-19T11:48:33.832Z,14.30
2023-01-19T11:49:33.840Z,10.00
2023-01-19T11:50:33.820Z,12.60
2023-01-19T11:51:33.809Z,13.50
2023-01-19T11:52:33.785Z,13.60
2023-01-19T11:53:33.776Z,11.70
2023-01-19T11:54:33.756Z,18.70
2023-01-19T11:55:33.752Z,25.80
2023-01-19T11:56:33.741Z,20.60
2023-01-19T11:57:33.731Z,9.90
2023-01-19T11:58:33.700Z,14.10
2023-01-19T11:59:33.729Z,8.80
2023-01-19T12:00:33.687Z,12.20
2023-01-19T12:01:33.694Z,10.10
2023-01-19T12:02:33.771Z,10.20
2023-01-19T12:03:33.742Z,15.40
2023-01-19T12:04:33.622Z,15.90
2023-01-19T12:05:33.614Z,13.50
2023-01-19T12:06:33.614Z,8.90
2023-01-19T12:07:33.591Z,9.50
2023-01-19T12:08:33.588Z,12.70
2023-01-19T12:09:33.608Z,6.00
2023-01-19T12:10:33.559Z,9.00
2023-01-19T12:11:33.546Z,8.80
2023-01-19T12:12:33.539Z,8.10
2023-01-19T12:13:33.528Z,14.90
2023-01-19T12:14:33.499Z,12.60
2023-01-19T12:15:33.543Z,9.30
2023-01-19T12:16:33.540Z,9.80
2023-01-19T12:17:33.460Z,7.60
2023-01-19T12:18:33.464Z,11.90
2023-01-19T12:19:33.439Z,7.30
2023-01-19T12:20:33.418Z,8.70
2023-01-19T12:21:33.434Z,8.70
2023-01-19T12:22:33.391Z,11.40
2023-01-19T12:23:33.385Z,11.50
2023-01-19T12:24:33.493Z,12.50
2023-01-19T12:25:33.368Z,8.70
2023-01-19T12:26:33.358Z,13.40
2023-01-19T12:27:33.329Z,7.50
2023-01-19T12:28:33.334Z,5.50
2023-01-19T12:29:33.311Z,10.50
2023-01-19T12:30:33.326Z,8.80
2023-01-19T12:31:33.397Z,10.40
2023-01-19T12:32:33.266Z,6.00
2023-01-19T12:33:33.261Z,8.60
2023-01-19T12:34:33.245Z,7.90
2023-01-19T12:35:33.241Z,12.10
2023-01-19T12:36:33.283Z,9.30
2023-01-19T12:37:33.224Z,16.80
2023-01-19T12:38:33.340Z,12.80
2023-01-19T12:39:33.200Z,8.20
2023-01-19T12:40:33.167Z,12.40
2023-01-19T12:41:33.173Z,9.90
2023-01-19T12:42:33.144Z,7.30
2023-01-19T12:43:33.157Z,13.40
2023-01-19T12:44:33.117Z,14.10
2023-01-19T12:45:33.108Z,9.00
2023-01-19T12:46:33.150Z,12.50
2023-01-19T12:47:33.083Z,13.80
2023-01-19T12:48:33.065Z,10.10
2023-01-19T12:49:33.093Z,9.30
2023-01-19T12:50:33.065Z,9.90
2023-01-19T12:51:33.052Z,9.40
2023-01-19T12:52:33.065Z,17.90
2023-01-19T12:53:33.017Z,15.60
2023-01-19T12:54:33.005Z,17.00
2023-01-19T12:55:32.998Z,11.90